Aviation Digital Data Service (ADDS)

Output produced by METARs form (1717 UTC 20 January 2019)
found at http://www.aviationweather.gov/metar/data/
 
GOGS 201700Z VRB06KT CAVOK 32/07 Q1013
TAF GOGS 201130Z 2012/2112 04012KT CAVOK
       
GOOK 201600Z 08006KT CAVOK 32/18 Q1014
GOTK 201500Z 04006KT CAVOK 35/14 Q1012
GOOY 201700Z 36008KT CAVOK 23/11 Q1015
TAF GOOY 201130Z 2012/2118 02015KT CAVOK
       
GOSS 201700Z 06010KT CAVOK 29/M03 Q1015
TAF GOSS 201130Z 2012/2112 06010KT CAVOK
       
GOTT 201700Z 02008KT CAVOK 32/01 Q1013
GOGG 201700Z 01004KT CAVOK 33/08 Q1013